sensor_id;sensor_type;location;lat;lon;timestamp;temperature;humidity
15259;DHT22;34462;51.368;12.364;2022-10-22T00:01:01;12.80;99.90
15259;DHT22;34462;51.368;12.364;2022-10-22T00:03:29;12.80;99.90
15259;DHT22;34462;51.368;12.364;2022-10-22T00:05:57;12.80;99.90
15259;DHT22;34462;51.368;12.364;2022-10-22T00:08:27;12.80;99.90
15259;DHT22;34462;51.368;12.364;2022-10-22T00:10:56;12.80;99.90
15259;DHT22;34462;51.368;12.364;2022-10-22T00:13:24;12.80;99.90
15259;DHT22;34462;51.368;12.364;2022-10-22T00:15:52;12.90;99.90
15259;DHT22;34462;51.368;12.364;2022-10-22T00:18:20;12.90;99.90
15259;DHT22;34462;51.368;12.364;2022-10-22T00:20:48;12.90;99.90
15259;DHT22;34462;51.368;12.364;2022-10-22T00:23:16;12.90;99.90
15259;DHT22;34462;51.368;12.364;2022-10-22T00:25:45;12.90;99.90
15259;DHT22;34462;51.368;12.364;2022-10-22T00:28:14;12.90;99.90
15259;DHT22;34462;51.368;12.364;2022-10-22T00:30:42;12.90;99.90
15259;DHT22;34462;51.368;12.364;2022-10-22T00:33:10;12.90;99.90
15259;DHT22;34462;51.368;12.364;2022-10-22T00:35:38;12.90;99.90
15259;DHT22;34462;51.368;12.364;2022-10-22T00:38:06;13.00;99.90
15259;DHT22;34462;51.368;12.364;2022-10-22T00:40:34;13.00;99.90
15259;DHT22;34462;51.368;12.364;2022-10-22T00:43:03;13.00;99.90
15259;DHT22;34462;51.368;12.364;2022-10-22T00:45:31;13.00;99.90
15259;DHT22;34462;51.368;12.364;2022-10-22T00:48:02;13.00;99.90
15259;DHT22;34462;51.368;12.364;2022-10-22T00:50:34;13.00;99.90
15259;DHT22;34462;51.368;12.364;2022-10-22T00:53:09;13.10;99.90
15259;DHT22;34462;51.368;12.364;2022-10-22T00:55:40;13.10;99.90
15259;DHT22;34462;51.368;12.364;2022-10-22T00:58:12;13.10;99.90
15259;DHT22;34462;51.368;12.364;2022-10-22T01:00:42;13.10;99.90
15259;DHT22;34462;51.368;12.364;2022-10-22T01:03:10;13.10;99.90
15259;DHT22;34462;51.368;12.364;2022-10-22T01:05:42;13.10;99.90
15259;DHT22;34462;51.368;12.364;2022-10-22T01:08:18;13.10;99.90
15259;DHT22;34462;51.368;12.364;2022-10-22T01:11:01;13.10;99.90
15259;DHT22;34462;51.368;12.364;2022-10-22T01:13:49;13.10;99.90
15259;DHT22;34462;51.368;12.364;2022-10-22T01:16:29;13.10;99.90
15259;DHT22;34462;51.368;12.364;2022-10-22T01:19:17;13.20;99.90
15259;DHT22;34462;51.368;12.364;2022-10-22T01:21:59;13.10;99.90
15259;DHT22;34462;51.368;12.364;2022-10-22T01:24:38;13.10;99.90
15259;DHT22;34462;51.368;12.364;2022-10-22T01:27:23;13.20;99.90
15259;DHT22;34462;51.368;12.364;2022-10-22T01:30:02;13.20;99.90
15259;DHT22;34462;51.368;12.364;2022-10-22T01:32:35;13.20;99.90
15259;DHT22;34462;51.368;12.364;2022-10-22T01:35:09;13.20;99.90
15259;DHT22;34462;51.368;12.364;2022-10-22T01:37:43;13.20;99.90
15259;DHT22;34462;51.368;12.364;2022-10-22T01:40:16;13.20;99.90
15259;DHT22;34462;51.368;12.364;2022-10-22T01:42:54;13.20;99.90
15259;DHT22;34462;51.368;12.364;2022-10-22T01:45:26;13.20;99.90
15259;DHT22;34462;51.368;12.364;2022-10-22T01:48:05;13.20;99.90
15259;DHT22;34462;51.368;12.364;2022-10-22T01:50:56;13.20;99.90
15259;DHT22;34462;51.368;12.364;2022-10-22T01:53:39;13.20;99.90
15259;DHT22;34462;51.368;12.364;2022-10-22T01:56:26;13.20;99.90
15259;DHT22;34462;51.368;12.364;2022-10-22T01:59:06;13.30;99.90
15259;DHT22;34462;51.368;12.364;2022-10-22T02:01:48;13.20;99.90
15259;DHT22;34462;51.368;12.364;2022-10-22T02:04:28;13.30;99.90
15259;DHT22;34462;51.368;12.364;2022-10-22T02:07:04;13.20;99.90
15259;DHT22;34462;51.368;12.364;2022-10-22T02:09:35;13.10;99.90
15259;DHT22;34462;51.368;12.364;2022-10-22T02:12:07;13.10;99.90
15259;DHT22;34462;51.368;12.364;2022-10-22T02:14:38;13.00;99.90
15259;DHT22;34462;51.368;12.364;2022-10-22T02:17:14;13.00;99.90
15259;DHT22;34462;51.368;12.364;2022-10-22T02:19:49;13.00;99.90
15259;DHT22;34462;51.368;12.364;2022-10-22T02:22:21;12.90;99.90
15259;DHT22;34462;51.368;12.364;2022-10-22T02:24:51;12.90;99.90
15259;DHT22;34462;51.368;12.364;2022-10-22T02:27:25;12.90;99.90
15259;DHT22;34462;51.368;12.364;2022-10-22T02:30:01;12.90;99.90
15259;DHT22;34462;51.368;12.364;2022-10-22T02:32:40;12.90;99.90
15259;DHT22;34462;51.368;12.364;2022-10-22T02:35:17;12.90;99.90
15259;DHT22;34462;51.368;12.364;2022-10-22T02:37:49;12.80;99.90
15259;DHT22;34462;51.368;12.364;2022-10-22T02:40:19;12.80;99.90
15259;DHT22;34462;51.368;12.364;2022-10-22T02:42:49;12.80;99.90
15259;DHT22;34462;51.368;12.364;2022-10-22T02:45:18;12.80;99.90
15259;DHT22;34462;51.368;12.364;2022-10-22T02:47:48;12.70;99.90
15259;DHT22;34462;51.368;12.364;2022-10-22T02:50:16;12.80;99.90
15259;DHT22;34462;51.368;12.364;2022-10-22T02:52:44;12.70;99.90
15259;DHT22;34462;51.368;12.364;2022-10-22T02:55:12;12.70;99.90
15259;DHT22;34462;51.368;12.364;2022-10-22T02:57:40;12.60;99.90
15259;DHT22;34462;51.368;12.364;2022-10-22T03:00:10;12.70;99.90
15259;DHT22;34462;51.368;12.364;2022-10-22T03:02:39;12.70;99.90
15259;DHT22;34462;51.368;12.364;2022-10-22T03:05:09;12.70;99.90
15259;DHT22;34462;51.368;12.364;2022-10-22T03:07:37;12.70;99.90
15259;DHT22;34462;51.368;12.364;2022-10-22T03:10:06;12.70;99.90
15259;DHT22;34462;51.368;12.364;2022-10-22T03:12:35;12.70;99.90
15259;DHT22;34462;51.368;12.364;2022-10-22T03:15:04;12.80;99.90
15259;DHT22;34462;51.368;12.364;2022-10-22T03:17:32;12.80;99.90
15259;DHT22;34462;51.368;12.364;2022-10-22T03:20:00;12.80;99.90
15259;DHT22;34462;51.368;12.364;2022-10-22T03:22:32;12.80;99.90
15259;DHT22;34462;51.368;12.364;2022-10-22T03:25:06;12.80;99.90
15259;DHT22;34462;51.368;12.364;2022-10-22T03:27:38;12.80;99.90
15259;DHT22;34462;51.368;12.364;2022-10-22T03:30:09;12.80;99.90
15259;DHT22;34462;51.368;12.364;2022-10-22T03:32:38;12.80;99.90
15259;DHT22;34462;51.368;12.364;2022-10-22T03:35:06;12.80;99.90
15259;DHT22;34462;51.368;12.364;2022-10-22T03:37:36;12.80;99.90
15259;DHT22;34462;51.368;12.364;2022-10-22T03:40:07;12.80;99.90
15259;DHT22;34462;51.368;12.364;2022-10-22T03:42:37;12.80;99.90
15259;DHT22;34462;51.368;12.364;2022-10-22T03:45:06;12.80;99.90
15259;DHT22;34462;51.368;12.364;2022-10-22T03:47:35;12.80;99.90
15259;DHT22;34462;51.368;12.364;2022-10-22T03:50:05;12.80;99.90
15259;DHT22;34462;51.368;12.364;2022-10-22T03:52:36;12.80;99.90
15259;DHT22;34462;51.368;12.364;2022-10-22T03:55:06;12.80;99.90
15259;DHT22;34462;51.368;12.364;2022-10-22T03:57:35;12.80;99.90
15259;DHT22;34462;51.368;12.364;2022-10-22T04:00:04;12.80;99.90
15259;DHT22;34462;51.368;12.364;2022-10-22T04:02:33;12.80;99.90
15259;DHT22;34462;51.368;12.364;2022-10-22T04:05:01;12.80;99.90
15259;DHT22;34462;51.368;12.364;2022-10-22T04:07:30;12.80;99.90
15259;DHT22;34462;51.368;12.364;2022-10-22T04:09:59;12.80;99.90
15259;DHT22;34462;51.368;12.364;2022-10-22T04:12:27;12.80;99.90
15259;DHT22;34462;51.368;12.364;2022-10-22T04:14:55;12.80;99.90
15259;DHT22;34462;51.368;12.364;2022-10-22T04:17:23;12.80;99.90
15259;DHT22;34462;51.368;12.364;2022-10-22T04:19:51;12.80;99.90
15259;DHT22;34462;51.368;12.364;2022-10-22T04:22:19;12.80;99.90
15259;DHT22;34462;51.368;12.364;2022-10-22T04:24:47;12.80;99.90
15259;DHT22;34462;51.368;12.364;2022-10-22T04:27:17;12.70;99.90
15259;DHT22;34462;51.368;12.364;2022-10-22T04:29:45;12.80;99.90
15259;DHT22;34462;51.368;12.364;2022-10-22T04:32:13;12.70;99.90
15259;DHT22;34462;51.368;12.364;2022-10-22T04:34:41;12.70;99.90
15259;DHT22;34462;51.368;12.364;2022-10-22T04:37:09;12.70;99.90
15259;DHT22;34462;51.368;12.364;2022-10-22T04:39:37;12.70;99.90
15259;DHT22;34462;51.368;12.364;2022-10-22T04:42:05;12.70;99.90
15259;DHT22;34462;51.368;12.364;2022-10-22T04:44:35;12.70;99.90
15259;DHT22;34462;51.368;12.364;2022-10-22T04:47:03;12.70;99.90
15259;DHT22;34462;51.368;12.364;2022-10-22T04:49:31;12.70;99.90
15259;DHT22;34462;51.368;12.364;2022-10-22T04:51:59;12.70;99.90
15259;DHT22;34462;51.368;12.364;2022-10-22T04:54:27;12.70;99.90
15259;DHT22;34462;51.368;12.364;2022-10-22T04:56:58;12.70;99.90
15259;DHT22;34462;51.368;12.364;2022-10-22T04:59:26;12.80;99.90
15259;DHT22;34462;51.368;12.364;2022-10-22T05:01:56;12.70;99.90
15259;DHT22;34462;51.368;12.364;2022-10-22T05:04:24;12.70;99.90
15259;DHT22;34462;51.368;12.364;2022-10-22T05:06:52;12.70;99.90
15259;DHT22;34462;51.368;12.364;2022-10-22T05:09:20;12.70;99.90
15259;DHT22;34462;51.368;12.364;2022-10-22T05:11:50;12.70;99.90
15259;DHT22;34462;51.368;12.364;2022-10-22T05:14:20;12.70;99.90
15259;DHT22;34462;51.368;12.364;2022-10-22T05:16:50;12.70;99.90
15259;DHT22;34462;51.368;12.364;2022-10-22T05:19:22;12.70;99.90
15259;DHT22;34462;51.368;12.364;2022-10-22T05:21:52;12.70;99.90
15259;DHT22;34462;51.368;12.364;2022-10-22T05:24:22;12.70;99.90
15259;DHT22;34462;51.368;12.364;2022-10-22T05:26:51;12.70;99.90
15259;DHT22;34462;51.368;12.364;2022-10-22T05:29:21;12.70;99.90
15259;DHT22;34462;51.368;12.364;2022-10-22T05:31:50;12.70;99.90
15259;DHT22;34462;51.368;12.364;2022-10-22T05:34:20;12.70;99.90
15259;DHT22;34462;51.368;12.364;2022-10-22T05:36:48;12.70;99.90
15259;DHT22;34462;51.368;12.364;2022-10-22T05:39:16;12.70;99.90
15259;DHT22;34462;51.368;12.364;2022-10-22T05:41:44;12.80;99.90
15259;DHT22;34462;51.368;12.364;2022-10-22T05:44:12;12.70;99.90
15259;DHT22;34462;51.368;12.364;2022-10-22T05:46:40;12.90;99.90
15259;DHT22;34462;51.368;12.364;2022-10-22T05:49:12;12.90;99.90
15259;DHT22;34462;51.368;12.364;2022-10-22T05:51:43;12.80;99.90
15259;DHT22;34462;51.368;12.364;2022-10-22T05:54:16;12.80;99.90
15259;DHT22;34462;51.368;12.364;2022-10-22T05:56:46;12.90;99.90
15259;DHT22;34462;51.368;12.364;2022-10-22T05:59:14;12.90;99.90
15259;DHT22;34462;51.368;12.364;2022-10-22T06:01:42;12.90;99.90
15259;DHT22;34462;51.368;12.364;2022-10-22T06:04:11;12.90;99.90
15259;DHT22;34462;51.368;12.364;2022-10-22T06:06:44;12.90;99.90
15259;DHT22;34462;51.368;12.364;2022-10-22T06:09:17;12.80;99.90
15259;DHT22;34462;51.368;12.364;2022-10-22T06:11:49;12.80;99.90
15259;DHT22;34462;51.368;12.364;2022-10-22T06:14:18;12.90;99.90
15259;DHT22;34462;51.368;12.364;2022-10-22T06:16:47;13.00;99.90
15259;DHT22;34462;51.368;12.364;2022-10-22T06:19:17;13.00;99.90
15259;DHT22;34462;51.368;12.364;2022-10-22T06:21:48;13.00;99.90
15259;DHT22;34462;51.368;12.364;2022-10-22T06:24:16;13.00;99.90
15259;DHT22;34462;51.368;12.364;2022-10-22T06:26:44;13.00;99.90
15259;DHT22;34462;51.368;12.364;2022-10-22T06:29:12;13.00;99.90
15259;DHT22;34462;51.368;12.364;2022-10-22T06:31:40;13.10;99.90
15259;DHT22;34462;51.368;12.364;2022-10-22T06:34:11;13.10;99.90
15259;DHT22;34462;51.368;12.364;2022-10-22T06:36:40;13.10;99.90
15259;DHT22;34462;51.368;12.364;2022-10-22T06:39:13;13.10;99.90
15259;DHT22;34462;51.368;12.364;2022-10-22T06:41:44;13.10;99.90
15259;DHT22;34462;51.368;12.364;2022-10-22T06:44:13;13.10;99.90
15259;DHT22;34462;51.368;12.364;2022-10-22T06:46:42;13.20;99.90
15259;DHT22;34462;51.368;12.364;2022-10-22T06:49:12;13.20;99.90
15259;DHT22;34462;51.368;12.364;2022-10-22T06:51:41;13.30;99.90
15259;DHT22;34462;51.368;12.364;2022-10-22T06:54:11;13.30;99.90
15259;DHT22;34462;51.368;12.364;2022-10-22T06:56:39;13.30;99.90
15259;DHT22;34462;51.368;12.364;2022-10-22T06:59:07;13.40;99.90
15259;DHT22;34462;51.368;12.364;2022-10-22T07:01:36;13.50;99.90
15259;DHT22;34462;51.368;12.364;2022-10-22T07:04:05;13.60;99.90
15259;DHT22;34462;51.368;12.364;2022-10-22T07:06:34;13.60;99.90
15259;DHT22;34462;51.368;12.364;2022-10-22T07:09:03;13.70;99.90
15259;DHT22;34462;51.368;12.364;2022-10-22T07:11:38;13.70;99.90
15259;DHT22;34462;51.368;12.364;2022-10-22T07:14:08;13.80;99.90
15259;DHT22;34462;51.368;12.364;2022-10-22T07:16:36;13.90;99.90
15259;DHT22;34462;51.368;12.364;2022-10-22T07:19:04;14.00;99.90
15259;DHT22;34462;51.368;12.364;2022-10-22T07:21:33;14.10;99.90
15259;DHT22;34462;51.368;12.364;2022-10-22T07:24:01;14.20;99.90
15259;DHT22;34462;51.368;12.364;2022-10-22T07:26:29;14.20;99.90
15259;DHT22;34462;51.368;12.364;2022-10-22T07:29:00;14.20;99.90
15259;DHT22;34462;51.368;12.364;2022-10-22T07:31:28;14.30;99.90
15259;DHT22;34462;51.368;12.364;2022-10-22T07:33:56;14.40;99.90
15259;DHT22;34462;51.368;12.364;2022-10-22T07:36:25;14.50;99.90
15259;DHT22;34462;51.368;12.364;2022-10-22T07:38:54;14.60;99.90
15259;DHT22;34462;51.368;12.364;2022-10-22T07:41:24;14.70;99.90
15259;DHT22;34462;51.368;12.364;2022-10-22T07:43:54;14.60;99.90
15259;DHT22;34462;51.368;12.364;2022-10-22T07:46:24;14.70;99.90
15259;DHT22;34462;51.368;12.364;2022-10-22T07:48:52;14.60;99.90
15259;DHT22;34462;51.368;12.364;2022-10-22T07:51:21;14.60;99.90
15259;DHT22;34462;51.368;12.364;2022-10-22T07:53:49;14.60;99.90
15259;DHT22;34462;51.368;12.364;2022-10-22T07:56:17;14.70;99.90
15259;DHT22;34462;51.368;12.364;2022-10-22T07:58:45;14.70;99.90
15259;DHT22;34462;51.368;12.364;2022-10-22T08:01:13;14.70;99.90
15259;DHT22;34462;51.368;12.364;2022-10-22T08:03:43;14.70;99.90
15259;DHT22;34462;51.368;12.364;2022-10-22T08:06:12;14.80;99.90
15259;DHT22;34462;51.368;12.364;2022-10-22T08:08:41;14.80;99.90
15259;DHT22;34462;51.368;12.364;2022-10-22T08:11:11;14.80;99.90
15259;DHT22;34462;51.368;12.364;2022-10-22T08:13:39;14.80;99.90
15259;DHT22;34462;51.368;12.364;2022-10-22T08:16:11;14.90;99.90
15259;DHT22;34462;51.368;12.364;2022-10-22T08:18:40;14.90;99.90
15259;DHT22;34462;51.368;12.364;2022-10-22T08:21:09;14.90;99.90
15259;DHT22;34462;51.368;12.364;2022-10-22T08:23:38;14.90;99.90
15259;DHT22;34462;51.368;12.364;2022-10-22T08:26:06;14.90;99.90
15259;DHT22;34462;51.368;12.364;2022-10-22T08:28:35;14.80;99.90
15259;DHT22;34462;51.368;12.364;2022-10-22T08:31:04;14.70;99.90
15259;DHT22;34462;51.368;12.364;2022-10-22T08:33:33;14.70;99.90
15259;DHT22;34462;51.368;12.364;2022-10-22T08:36:01;14.70;99.90
15259;DHT22;34462;51.368;12.364;2022-10-22T08:38:30;14.70;99.90
15259;DHT22;34462;51.368;12.364;2022-10-22T08:41:05;14.70;99.90
15259;DHT22;34462;51.368;12.364;2022-10-22T08:47:08;14.80;99.90
15259;DHT22;34462;51.368;12.364;2022-10-22T08:49:48;14.80;99.90
15259;DHT22;34462;51.368;12.364;2022-10-22T08:52:18;14.80;99.90
15259;DHT22;34462;51.368;12.364;2022-10-22T08:54:51;14.80;99.90
15259;DHT22;34462;51.368;12.364;2022-10-22T08:57:37;14.90;99.90
15259;DHT22;34462;51.368;12.364;2022-10-22T09:00:20;15.00;99.90
15259;DHT22;34462;51.368;12.364;2022-10-22T09:03:01;15.00;99.90
15259;DHT22;34462;51.368;12.364;2022-10-22T09:05:45;15.00;99.90
15259;DHT22;34462;51.368;12.364;2022-10-22T09:08:19;15.10;99.90
15259;DHT22;34462;51.368;12.364;2022-10-22T09:10:53;15.10;99.90
15259;DHT22;34462;51.368;12.364;2022-10-22T09:13:26;15.20;99.90
15259;DHT22;34462;51.368;12.364;2022-10-22T09:15:57;15.30;99.90
15259;DHT22;34462;51.368;12.364;2022-10-22T09:18:34;15.30;99.90
15259;DHT22;34462;51.368;12.364;2022-10-22T09:21:15;15.40;99.90
15259;DHT22;34462;51.368;12.364;2022-10-22T09:24:01;15.60;99.90
15259;DHT22;34462;51.368;12.364;2022-10-22T09:26:35;15.70;99.90
15259;DHT22;34462;51.368;12.364;2022-10-22T09:29:06;15.90;99.90
15259;DHT22;34462;51.368;12.364;2022-10-22T09:31:40;16.10;99.90
15259;DHT22;34462;51.368;12.364;2022-10-22T09:34:08;16.10;99.90
15259;DHT22;34462;51.368;12.364;2022-10-22T09:36:37;16.30;99.90
15259;DHT22;34462;51.368;12.364;2022-10-22T09:39:21;16.40;99.90
15259;DHT22;34462;51.368;12.364;2022-10-22T09:41:53;16.60;99.90
15259;DHT22;34462;51.368;12.364;2022-10-22T09:44:21;16.80;99.90
15259;DHT22;34462;51.368;12.364;2022-10-22T09:46:49;16.90;99.90
15259;DHT22;34462;51.368;12.364;2022-10-22T09:49:18;17.20;99.90
15259;DHT22;34462;51.368;12.364;2022-10-22T09:51:52;17.50;99.90
15259;DHT22;34462;51.368;12.364;2022-10-22T09:54:24;17.60;99.90
15259;DHT22;34462;51.368;12.364;2022-10-22T09:56:56;17.50;99.90
15259;DHT22;34462;51.368;12.364;2022-10-22T09:59:31;17.50;99.90
15259;DHT22;34462;51.368;12.364;2022-10-22T10:02:10;17.30;99.90
15259;DHT22;34462;51.368;12.364;2022-10-22T10:05:02;17.30;99.90
15259;DHT22;34462;51.368;12.364;2022-10-22T10:07:32;17.20;99.90
15259;DHT22;34462;51.368;12.364;2022-10-22T10:10:05;17.20;99.90
15259;DHT22;34462;51.368;12.364;2022-10-22T10:12:52;17.10;99.90
15259;DHT22;34462;51.368;12.364;2022-10-22T10:15:27;17.20;99.90
15259;DHT22;34462;51.368;12.364;2022-10-22T10:18:11;17.30;99.90
15259;DHT22;34462;51.368;12.364;2022-10-22T10:20:57;17.60;99.90
15259;DHT22;34462;51.368;12.364;2022-10-22T10:23:39;18.30;99.90
15259;DHT22;34462;51.368;12.364;2022-10-22T10:26:20;18.70;99.90
15259;DHT22;34462;51.368;12.364;2022-10-22T10:29:09;18.70;99.90
15259;DHT22;34462;51.368;12.364;2022-10-22T10:32:01;18.70;99.90
15259;DHT22;34462;51.368;12.364;2022-10-22T10:34:54;18.50;99.90
15259;DHT22;34462;51.368;12.364;2022-10-22T10:37:35;18.40;99.90
15259;DHT22;34462;51.368;12.364;2022-10-22T10:40:20;18.20;99.90
15259;DHT22;34462;51.368;12.364;2022-10-22T10:42:57;18.20;99.90
15259;DHT22;34462;51.368;12.364;2022-10-22T10:45:38;18.20;99.90
15259;DHT22;34462;51.368;12.364;2022-10-22T10:48:35;18.10;99.90
15259;DHT22;34462;51.368;12.364;2022-10-22T10:51:23;18.20;99.90
15259;DHT22;34462;51.368;12.364;2022-10-22T10:54:17;18.10;99.90
15259;DHT22;34462;51.368;12.364;2022-10-22T10:56:55;18.20;99.90
15259;DHT22;34462;51.368;12.364;2022-10-22T10:59:40;18.10;99.90
15259;DHT22;34462;51.368;12.364;2022-10-22T11:02:43;18.20;99.90
15259;DHT22;34462;51.368;12.364;2022-10-22T11:05:49;18.10;99.90
15259;DHT22;34462;51.368;12.364;2022-10-22T11:08:25;18.20;99.90
15259;DHT22;34462;51.368;12.364;2022-10-22T11:11:00;18.10;99.90
15259;DHT22;34462;51.368;12.364;2022-10-22T11:13:35;18.10;99.90
15259;DHT22;34462;51.368;12.364;2022-10-22T11:16:11;18.20;99.90
15259;DHT22;34462;51.368;12.364;2022-10-22T11:18:52;18.30;99.90
15259;DHT22;34462;51.368;12.364;2022-10-22T11:21:30;18.40;99.90
15259;DHT22;34462;51.368;12.364;2022-10-22T11:24:11;18.40;99.90
15259;DHT22;34462;51.368;12.364;2022-10-22T11:26:50;18.60;99.90
15259;DHT22;34462;51.368;12.364;2022-10-22T11:29:27;18.80;99.90
15259;DHT22;34462;51.368;12.364;2022-10-22T11:32:01;19.00;99.90
15259;DHT22;34462;51.368;12.364;2022-10-22T11:34:34;19.10;99.90
15259;DHT22;34462;51.368;12.364;2022-10-22T11:37:10;19.00;99.90
15259;DHT22;34462;51.368;12.364;2022-10-22T11:39:43;18.80;99.90
15259;DHT22;34462;51.368;12.364;2022-10-22T11:42:18;18.80;99.90
15259;DHT22;34462;51.368;12.364;2022-10-22T11:44:58;18.70;99.90
15259;DHT22;34462;51.368;12.364;2022-10-22T11:47:28;18.70;99.90
15259;DHT22;34462;51.368;12.364;2022-10-22T11:50:17;18.50;99.90
15259;DHT22;34462;51.368;12.364;2022-10-22T11:52:53;18.50;99.90
15259;DHT22;34462;51.368;12.364;2022-10-22T11:55:34;18.50;99.90
15259;DHT22;34462;51.368;12.364;2022-10-22T11:58:30;18.40;99.90
15259;DHT22;34462;51.368;12.364;2022-10-22T12:01:21;18.40;99.90
15259;DHT22;34462;51.368;12.364;2022-10-22T12:03:52;18.50;99.90
15259;DHT22;34462;51.368;12.364;2022-10-22T12:06:52;18.50;99.90
15259;DHT22;34462;51.368;12.364;2022-10-22T12:09:26;18.60;99.90
15259;DHT22;34462;51.368;12.364;2022-10-22T12:12:04;18.60;99.90
15259;DHT22;34462;51.368;12.364;2022-10-22T12:14:52;18.60;99.90
15259;DHT22;34462;51.368;12.364;2022-10-22T12:17:22;18.60;99.90
15259;DHT22;34462;51.368;12.364;2022-10-22T12:19:57;18.60;99.90
15259;DHT22;34462;51.368;12.364;2022-10-22T12:22:31;18.60;99.90
15259;DHT22;34462;51.368;12.364;2022-10-22T12:25:11;18.50;99.90
15259;DHT22;34462;51.368;12.364;2022-10-22T12:27:49;18.50;99.90
15259;DHT22;34462;51.368;12.364;2022-10-22T12:30:21;18.60;99.90
15259;DHT22;34462;51.368;12.364;2022-10-22T12:32:52;18.70;99.90
15259;DHT22;34462;51.368;12.364;2022-10-22T12:35:23;18.90;99.90
15259;DHT22;34462;51.368;12.364;2022-10-22T12:37:56;19.00;99.90
15259;DHT22;34462;51.368;12.364;2022-10-22T12:40:29;19.40;99.90
15259;DHT22;34462;51.368;12.364;2022-10-22T12:43:01;19.40;99.90
15259;DHT22;34462;51.368;12.364;2022-10-22T12:45:37;19.30;99.90
15259;DHT22;34462;51.368;12.364;2022-10-22T12:48:14;19.30;99.90
15259;DHT22;34462;51.368;12.364;2022-10-22T12:50:47;19.20;99.90
15259;DHT22;34462;51.368;12.364;2022-10-22T12:53:23;19.00;99.90
15259;DHT22;34462;51.368;12.364;2022-10-22T12:55:58;18.90;99.90
15259;DHT22;34462;51.368;12.364;2022-10-22T12:58:33;18.80;99.90
15259;DHT22;34462;51.368;12.364;2022-10-22T13:01:08;18.80;99.90
15259;DHT22;34462;51.368;12.364;2022-10-22T13:03:41;18.80;99.90
15259;DHT22;34462;51.368;12.364;2022-10-22T13:06:20;18.80;99.90
15259;DHT22;34462;51.368;12.364;2022-10-22T13:09:06;18.80;99.90
15259;DHT22;34462;51.368;12.364;2022-10-22T13:11:41;18.70;99.90
15259;DHT22;34462;51.368;12.364;2022-10-22T13:14:20;18.70;99.90
15259;DHT22;34462;51.368;12.364;2022-10-22T13:17:03;18.60;99.90
15259;DHT22;34462;51.368;12.364;2022-10-22T13:19:46;18.60;99.90
15259;DHT22;34462;51.368;12.364;2022-10-22T13:22:37;18.70;99.90
15259;DHT22;34462;51.368;12.364;2022-10-22T13:25:23;18.60;99.90
15259;DHT22;34462;51.368;12.364;2022-10-22T13:27:54;18.70;99.90
15259;DHT22;34462;51.368;12.364;2022-10-22T13:30:26;18.70;99.90
15259;DHT22;34462;51.368;12.364;2022-10-22T13:32:57;18.70;99.90
15259;DHT22;34462;51.368;12.364;2022-10-22T13:35:28;18.80;99.90
15259;DHT22;34462;51.368;12.364;2022-10-22T13:37:58;18.80;99.90
15259;DHT22;34462;51.368;12.364;2022-10-22T13:40:28;18.80;99.90
15259;DHT22;34462;51.368;12.364;2022-10-22T13:42:56;18.80;99.90
15259;DHT22;34462;51.368;12.364;2022-10-22T13:45:24;18.70;99.90
15259;DHT22;34462;51.368;12.364;2022-10-22T13:47:53;18.60;99.90
15259;DHT22;34462;51.368;12.364;2022-10-22T13:50:22;18.50;99.90
15259;DHT22;34462;51.368;12.364;2022-10-22T13:52:52;18.50;99.90
15259;DHT22;34462;51.368;12.364;2022-10-22T13:55:23;18.40;99.90
15259;DHT22;34462;51.368;12.364;2022-10-22T13:57:54;18.40;99.90
15259;DHT22;34462;51.368;12.364;2022-10-22T14:00:24;18.30;99.90
15259;DHT22;34462;51.368;12.364;2022-10-22T14:02:56;18.10;99.90
15259;DHT22;34462;51.368;12.364;2022-10-22T14:05:25;17.90;99.90
15259;DHT22;34462;51.368;12.364;2022-10-22T14:07:53;17.80;99.90
15259;DHT22;34462;51.368;12.364;2022-10-22T14:10:24;17.90;99.90
15259;DHT22;34462;51.368;12.364;2022-10-22T14:12:54;17.90;99.90
15259;DHT22;34462;51.368;12.364;2022-10-22T14:15:23;17.70;99.90
15259;DHT22;34462;51.368;12.364;2022-10-22T14:17:56;17.60;99.90
15259;DHT22;34462;51.368;12.364;2022-10-22T14:20:28;17.40;99.90
15259;DHT22;34462;51.368;12.364;2022-10-22T14:23:03;17.50;99.90
15259;DHT22;34462;51.368;12.364;2022-10-22T14:25:40;17.50;99.90
15259;DHT22;34462;51.368;12.364;2022-10-22T14:28:10;17.60;99.90
15259;DHT22;34462;51.368;12.364;2022-10-22T14:30:39;17.60;99.90
15259;DHT22;34462;51.368;12.364;2022-10-22T14:33:12;17.60;99.90
15259;DHT22;34462;51.368;12.364;2022-10-22T14:35:43;17.60;99.90
15259;DHT22;34462;51.368;12.364;2022-10-22T14:38:11;17.60;99.90
15259;DHT22;34462;51.368;12.364;2022-10-22T14:40:40;17.60;99.90
15259;DHT22;34462;51.368;12.364;2022-10-22T14:43:12;17.80;99.90
15259;DHT22;34462;51.368;12.364;2022-10-22T14:45:43;17.80;99.90
15259;DHT22;34462;51.368;12.364;2022-10-22T14:48:10;17.80;99.90
15259;DHT22;34462;51.368;12.364;2022-10-22T14:50:38;17.80;99.90
15259;DHT22;34462;51.368;12.364;2022-10-22T14:53:06;17.70;99.90
15259;DHT22;34462;51.368;12.364;2022-10-22T14:55:35;17.60;99.90
15259;DHT22;34462;51.368;12.364;2022-10-22T14:58:03;17.60;99.90
15259;DHT22;34462;51.368;12.364;2022-10-22T15:00:32;17.50;99.90
15259;DHT22;34462;51.368;12.364;2022-10-22T15:03:02;17.40;99.90
15259;DHT22;34462;51.368;12.364;2022-10-22T15:05:30;17.20;99.90
15259;DHT22;34462;51.368;12.364;2022-10-22T15:07:58;17.10;99.90
15259;DHT22;34462;51.368;12.364;2022-10-22T15:10:26;17.00;99.90
15259;DHT22;34462;51.368;12.364;2022-10-22T15:12:54;16.90;99.90
15259;DHT22;34462;51.368;12.364;2022-10-22T15:15:22;16.80;99.90
15259;DHT22;34462;51.368;12.364;2022-10-22T15:17:57;16.70;99.90
15259;DHT22;34462;51.368;12.364;2022-10-22T15:20:26;16.70;99.90
15259;DHT22;34462;51.368;12.364;2022-10-22T15:22:55;16.60;99.90
15259;DHT22;34462;51.368;12.364;2022-10-22T15:25:23;16.40;99.90
15259;DHT22;34462;51.368;12.364;2022-10-22T15:27:51;16.30;99.90
15259;DHT22;34462;51.368;12.364;2022-10-22T15:30:30;16.20;99.90
15259;DHT22;34462;51.368;12.364;2022-10-22T15:33:00;16.10;99.90
15259;DHT22;34462;51.368;12.364;2022-10-22T15:35:28;16.00;99.90
15259;DHT22;34462;51.368;12.364;2022-10-22T15:37:56;15.90;99.90
15259;DHT22;34462;51.368;12.364;2022-10-22T15:40:25;15.90;99.90
15259;DHT22;34462;51.368;12.364;2022-10-22T15:42:53;15.80;99.90
15259;DHT22;34462;51.368;12.364;2022-10-22T15:45:21;15.80;99.90
15259;DHT22;34462;51.368;12.364;2022-10-22T15:47:50;15.70;99.90
15259;DHT22;34462;51.368;12.364;2022-10-22T15:50:19;15.60;99.90
15259;DHT22;34462;51.368;12.364;2022-10-22T15:52:47;15.50;99.90